Beckley, West Virginia
Current Conditions -  °F | °C
As of 2:51 AM on Saturday 22 Nov 2014 (Local Time) from KBKW Reporting Station
Clear Clear  
Wind Chill: 25°   Ceiling: Unl
Heat Index: 30°   Visibility: 10mi
Dew Point:   Wind: 5mph
Humidity: 30%   Direction: 130°SE
Pressure: 30.39"   Gusts: NA
Location:  37.78°N, 81.19°W
Report Text: KBKW 220751Z AUTO 13004KT 10SM CLR M01/M17 A3039 RMK AO2 SLP319 T10111167
Loading
Personal Weather Stations






























Interactive Weather Map New forecast layout! Learn more

10-Day Weather Forecast

Advertisements
Track Severe Weather on mobile